Schulines, Illinois
Current Conditions -  °F | °C
As of 2:55 PM on Thursday 20 Nov 2014 (Local Time) from KSAR Reporting Station
Overcast Overcast  
Wind Chill: 38°   Ceiling: 9000
Heat Index: 38°   Visibility: 10mi
Dew Point: 19°   Wind: 3mph
Humidity: 46%   Direction: 220°SW
Pressure: 30.21"   Gusts: NA
Location:  38.1133°N, 89.7153°W
Report Text: KSAR 202055Z AUTO 22003KT 10SM OVC090 04/M07 A3021 RMK AO2 T00361072
Loading
Personal Weather Stations






























Interactive Weather Map New forecast layout! Learn more

10-Day Weather Forecast

Advertisements
Track Severe Weather on mobile